Time;durP1;ratioP1;P1;durP2;ratioP2;P2;SDS_P1;SDS_P2;PMS_P1;PMS_P2;Temp;Humidity;BMP_temperature;BMP_pressure;BME280_temperature;BME280_humidity;BME280_pressure;Samples;Min_cycle;Max_cycle;Signal;HPM_P1;HPM_P2
2024/04/02 00:00:37;;;;;;;0.40;0.30;;;;;;;7.85;100.00;92119.94;2098006;28;20031;-84
2024/04/02 00:01:38;;;;;;;0.20;0.20;;;;;;;7.82;100.00;92126.88;2106322;28;20051;-86
2024/04/02 00:02:39;;;;;;;0.20;0.20;;;;;;;7.89;100.00;92116.03;2106387;28;20059;-82
2024/04/02 00:03:44;;;;;;;0.30;0.30;;;;;;;7.92;100.00;92131.16;2115064;28;20407;-86
2024/04/02 00:04:45;;;;;;;0.20;0.20;;;;;;;7.81;100.00;92120.81;2123395;27;20027;-84
2024/04/02 00:05:46;;;;;;;0.55;0.35;;;;;;;7.65;100.00;92120.13;2114563;28;20042;-82
2024/04/02 00:06:47;;;;;;;1.48;0.40;;;;;;;7.74;100.00;92136.22;2098062;28;20055;-84
2024/04/02 00:07:48;;;;;;;0.20;0.20;;;;;;;7.67;100.00;92131.06;2106089;28;20038;-81
2024/04/02 00:08:49;;;;;;;0.20;0.20;;;;;;;7.68;100.00;92138.66;2106387;28;20023;-82
2024/04/02 00:09:50;;;;;;;0.20;0.20;;;;;;;7.72;100.00;92128.63;2105999;28;20086;-83
2024/04/02 00:10:51;;;;;;;0.40;0.40;;;;;;;7.71;100.00;92139.72;2106156;28;20020;-85
2024/04/02 00:11:51;;;;;;;1.38;0.40;;;;;;;7.61;100.00;92130.13;2106530;28;20099;-84
2024/04/02 00:12:52;;;;;;;0.20;0.20;;;;;;;7.66;100.00;92137.56;2114989;28;20039;-84
2024/04/02 00:13:53;;;;;;;0.30;0.30;;;;;;;7.73;100.00;92134.72;2114689;28;20107;-85
2024/04/02 00:14:54;;;;;;;0.30;0.30;;;;;;;7.49;100.00;92126.22;2106413;28;20077;-82
2024/04/02 00:15:56;;;;;;;0.35;0.30;;;;;;;7.60;100.00;92131.28;2106541;28;20103;-82
2024/04/02 00:16:57;;;;;;;0.32;0.20;;;;;;;7.71;100.00;92118.44;2104571;28;20032;-82
2024/04/02 00:18:02;;;;;;;0.57;0.28;;;;;;;7.66;100.00;92132.25;2098283;28;20408;-81
2024/04/02 00:19:05;;;;;;;0.20;0.20;;;;;;;7.67;100.00;92128.41;2116158;27;20114;-83
2024/04/02 00:20:07;;;;;;;0.80;0.30;;;;;;;7.56;100.00;92126.06;2118688;27;20379;-85
2024/04/02 00:21:08;;;;;;;0.50;0.28;;;;;;;7.50;100.00;92128.47;2114681;28;20398;-82
2024/04/02 00:22:09;;;;;;;0.35;0.30;;;;;;;7.60;100.00;92131.28;2113921;27;20024;-86
2024/04/02 00:23:11;;;;;;;0.30;0.30;;;;;;;7.43;100.00;92133.25;2119289;27;20482;-84
2024/04/02 00:24:12;;;;;;;0.20;0.20;;;;;;;7.52;100.00;92126.16;2116668;27;20030;-84
2024/04/02 00:25:12;;;;;;;0.20;0.20;;;;;;;7.76;100.00;92131.22;2106344;28;20032;-84
2024/04/02 00:26:13;;;;;;;0.30;0.30;;;;;;;7.31;100.00;92121.38;2095538;28;20031;-83
2024/04/02 00:27:14;;;;;;;0.20;0.20;;;;;;;7.54;100.00;92139.00;2104644;28;20054;-83
2024/04/02 00:28:15;;;;;;;0.57;0.28;;;;;;;7.39;100.00;92129.94;2105867;28;20480;-83
2024/04/02 00:29:18;;;;;;;0.28;0.28;;;;;;;7.56;100.00;92134.78;2105956;28;20028;-82
2024/04/02 00:30:28;;;;;;;0.20;0.20;;;;;;;7.62;100.00;92129.69;2105050;28;20488;-83
2024/04/02 00:31:29;;;;;;;0.28;0.25;;;;;;;7.47;100.00;92137.28;2100227;27;20519;-85
2024/04/02 00:32:31;;;;;;;0.20;0.20;;;;;;;7.51;100.00;92123.91;2122849;27;20026;-85
2024/04/02 00:33:33;;;;;;;0.20;0.20;;;;;;;7.52;100.00;92126.16;2123043;27;20081;-85
2024/04/02 00:34:34;;;;;;;0.30;0.30;;;;;;;7.20;100.00;92137.59;2113986;28;20525;-84
2024/04/02 00:35:34;;;;;;;2.15;0.20;;;;;;;7.34;100.00;92141.81;2106006;28;20041;-85
2024/04/02 00:36:35;;;;;;;0.20;0.20;;;;;;;7.20;100.00;92137.59;2114609;28;20023;-83
2024/04/02 00:37:36;;;;;;;0.25;0.25;;;;;;;7.21;100.00;92139.09;2123704;27;20019;-82
2024/04/02 00:38:37;;;;;;;0.20;0.20;;;;;;;7.24;100.00;92142.81;2112414;28;20039;-81
2024/04/02 00:39:38;;;;;;;0.40;0.20;;;;;;;7.23;100.00;92141.31;2103503;28;20024;-81
2024/04/02 00:40:40;;;;;;;0.20;0.20;;;;;;;7.16;100.00;92147.56;2106038;28;20067;-84
2024/04/02 00:41:41;;;;;;;0.20;0.20;;;;;;;7.02;100.00;92153.22;2097767;28;20029;-86
2024/04/02 00:42:43;;;;;;;0.28;0.28;;;;;;;7.18;100.00;92155.13;2089484;28;20020;-83
2024/04/02 00:43:44;;;;;;;1.02;0.30;;;;;;;7.29;100.00;92153.69;2097749;28;20036;-84
2024/04/02 00:44:45;;;;;;;0.20;0.20;;;;;;;7.25;100.00;92161.00;2105708;28;20020;-84
2024/04/02 00:45:46;;;;;;;0.77;0.30;;;;;;;7.37;100.00;92156.91;2106214;28;20531;-84
2024/04/02 00:46:53;;;;;;;0.20;0.20;;;;;;;7.20;100.00;92158.88;2106228;28;20031;-84
2024/04/02 00:47:54;;;;;;;0.30;0.30;;;;;;;6.97;100.00;92167.75;2111831;28;20024;-81
2024/04/02 00:48:55;;;;;;;0.20;0.20;;;;;;;7.03;100.00;92166.09;2111385;28;20107;-84
2024/04/02 00:49:56;;;;;;;0.20;0.20;;;;;;;6.98;100.00;92168.50;2098591;28;20028;-84
2024/04/02 00:50:57;;;;;;;0.20;0.20;;;;;;;7.20;100.00;92168.72;2105564;28;20043;-82
2024/04/02 00:51:59;;;;;;;0.70;0.30;;;;;;;7.20;100.00;92171.38;2105843;28;20451;-80
2024/04/02 00:53:00;;;;;;;0.65;0.28;;;;;;;7.16;100.00;92168.84;2097627;28;20035;-82
2024/04/02 00:54:01;;;;;;;0.20;0.20;;;;;;;7.02;100.00;92177.13;2089268;28;20203;-87
2024/04/02 00:55:03;;;;;;;0.20;0.20;;;;;;;7.16;100.00;92186.69;2086950;28;20040;-83
2024/04/02 00:56:04;;;;;;;0.40;0.20;;;;;;;6.97;100.00;92183.69;2114337;28;20531;-83
2024/04/02 00:57:05;;;;;;;0.22;0.20;;;;;;;6.99;100.00;92185.94;2108925;28;20041;-83
2024/04/02 00:58:06;;;;;;;1.92;0.30;;;;;;;6.90;100.00;92175.91;2104324;28;20052;-85
2024/04/02 00:59:09;;;;;;;0.20;0.20;;;;;;;7.10;100.00;92185.69;2105911;28;20027;-84
2024/04/02 01:00:11;;;;;;;0.30;0.30;;;;;;;7.43;100.00;92171.19;2097568;28;20055;-83
2024/04/02 01:01:12;;;;;;;0.82;0.40;;;;;;;7.44;100.00;92178.00;2106320;28;20408;-81
2024/04/02 01:02:13;;;;;;;0.20;0.20;;;;;;;7.42;100.00;92183.00;2122663;27;20031;-81
2024/04/02 01:03:14;;;;;;;0.20;0.20;;;;;;;7.38;100.00;92190.31;2105527;28;20032;-85
2024/04/02 01:04:15;;;;;;;0.20;0.20;;;;;;;7.27;100.00;92184.50;2105816;28;20451;-84
2024/04/02 01:05:16;;;;;;;0.77;0.25;;;;;;;7.35;100.00;92193.06;2114231;28;20024;-84
2024/04/02 01:06:16;;;;;;;0.70;0.28;;;;;;;7.14;100.00;92194.31;2122574;27;20022;-82
2024/04/02 01:07:18;;;;;;;0.20;0.20;;;;;;;7.14;100.00;92199.63;2121879;27;20114;-84
2024/04/02 01:08:19;;;;;;;0.20;0.20;;;;;;;7.00;100.00;92190.84;2113939;28;20084;-82
2024/04/02 01:09:21;;;;;;;0.57;0.20;;;;;;;7.15;100.00;92193.91;2114297;28;20027;-82
2024/04/02 01:10:22;;;;;;;0.20;0.20;;;;;;;7.13;100.00;92192.84;2113933;28;20022;-84
2024/04/02 01:11:24;;;;;;;1.05;0.30;;;;;;;7.37;100.00;92191.47;2105996;28;20036;-83
2024/04/02 01:12:25;;;;;;;0.20;0.20;;;;;;;7.55;100.00;92199.00;2106154;28;20024;-83
2024/04/02 01:13:26;;;;;;;0.20;0.20;;;;;;;7.51;100.00;92191.13;2097521;28;20024;-82
2024/04/02 01:14:27;;;;;;;0.28;0.28;;;;;;;7.37;100.00;92202.09;2097739;28;20037;-83
2024/04/02 01:15:29;;;;;;;0.75;0.30;;;;;;;7.07;100.00;92198.66;2114124;28;20027;-84
2024/04/02 01:16:29;;;;;;;1.45;0.30;;;;;;;7.35;100.00;92209.75;2108814;28;20027;-83
2024/04/02 01:17:30;;;;;;;0.28;0.20;;;;;;;7.21;100.00;92207.44;2109345;28;20027;-84
2024/04/02 01:18:31;;;;;;;0.55;0.30;;;;;;;7.32;100.00;92198.03;2110328;28;20051;-84
2024/04/02 01:19:32;;;;;;;0.20;0.20;;;;;;;7.48;100.00;92204.50;2113377;28;20031;-84
2024/04/02 01:20:34;;;;;;;0.80;0.20;;;;;;;7.60;100.00;92208.41;2117095;27;20020;-84
2024/04/02 01:21:35;;;;;;;0.85;0.30;;;;;;;7.58;100.00;92222.09;2115731;27;20483;-84
2024/04/02 01:22:36;;;;;;;0.30;0.30;;;;;;;7.42;100.00;92206.16;2114030;28;20046;-81
2024/04/02 01:23:37;;;;;;;0.20;0.20;;;;;;;7.15;100.00;92206.44;2097263;28;20024;-80
2024/04/02 01:24:40;;;;;;;0.85;0.40;;;;;;;7.16;100.00;92213.25;2114125;27;20056;-82
2024/04/02 01:25:43;;;;;;;0.50;0.30;;;;;;;7.21;100.00;92220.75;2111276;28;20364;-81
2024/04/02 01:26:44;;;;;;;0.20;0.20;;;;;;;7.22;100.00;92219.56;2101147;28;20036;-83
2024/04/02 01:27:45;;;;;;;0.60;0.40;;;;;;;7.50;100.00;92224.19;2112184;28;20507;-80
2024/04/02 01:28:53;;;;;;;0.20;0.20;;;;;;;7.22;100.00;92209.69;2101304;28;20036;-84
2024/04/02 01:29:56;;;;;;;0.80;0.30;;;;;;;7.00;100.00;92219.31;2082565;28;20144;-84
2024/04/02 01:30:57;;;;;;;0.63;0.30;;;;;;;6.96;100.00;92219.38;2089519;28;20059;-84
2024/04/02 01:33:56;;;;;;;0.35;0.30;;;;;;;7.09;100.00;92227.44;2113013;28;20059;-84
2024/04/02 01:34:59;;;;;;;0.45;0.20;;;;;;;7.33;100.00;92225.38;2105362;28;20070;-82
2024/04/02 01:37:57;;;;;;;0.25;0.25;;;;;;;7.25;100.00;92216.84;2106286;28;20016;-85
2024/04/02 01:39:51;;;;;;;0.30;0.30;;;;;;;7.55;100.00;92217.63;2105812;28;20023;-82
2024/04/02 01:44:12;;;;;;;0.25;0.25;;;;;;;7.23;100.00;92211.16;2105370;28;20035;-84
2024/04/02 01:45:13;;;;;;;0.20;0.20;;;;;;;7.50;100.00;92210.88;2099724;28;20463;-83
2024/04/02 01:46:15;;;;;;;0.32;0.30;;;;;;;7.29;100.00;92214.84;1991677;28;20236;-84
2024/04/02 01:47:17;;;;;;;1.42;0.35;;;;;;;7.37;100.00;92215.38;2014409;28;20901;-86
2024/04/02 01:48:18;;;;;;;0.40;0.40;;;;;;;7.26;100.00;92220.22;2021627;28;20771;-82
2024/04/02 01:49:19;;;;;;;0.30;0.30;;;;;;;7.18;100.00;92219.66;2023268;28;20094;-81
2024/04/02 01:50:20;;;;;;;2.78;0.40;;;;;;;7.23;100.00;92221.06;2044983;28;20118;-82
2024/04/02 01:51:21;;;;;;;0.30;0.30;;;;;;;7.23;100.00;92223.72;2078467;27;20118;-83
2024/04/02 01:52:22;;;;;;;0.80;0.30;;;;;;;7.44;100.00;92219.81;2105574;28;20055;-86
2024/04/02 01:53:23;;;;;;;1.02;0.40;;;;;;;7.64;100.00;92228.44;2105675;28;20028;-80
2024/04/02 01:54:24;;;;;;;0.43;0.30;;;;;;;7.47;100.00;92219.72;2052473;28;20020;-84
2024/04/02 01:55:25;;;;;;;1.67;0.43;;;;;;;7.17;100.00;92233.34;2082461;28;20032;-85
2024/04/02 01:56:26;;;;;;;0.30;0.30;;;;;;;7.46;100.00;92228.09;2037427;28;23453;-81
2024/04/02 01:57:26;;;;;;;0.85;0.30;;;;;;;7.30;100.00;92232.28;2015271;28;22935;-83
2024/04/02 01:58:27;;;;;;;0.30;0.30;;;;;;;7.31;100.00;92228.44;2037841;27;20024;-84
2024/04/02 01:59:28;;;;;;;0.47;0.30;;;;;;;7.44;100.00;92225.88;2038235;28;21464;-83
2024/04/02 02:00:29;;;;;;;0.38;0.38;;;;;;;7.42;100.00;92236.19;2030830;28;20016;-83
2024/04/02 02:01:30;;;;;;;0.32;0.32;;;;;;;7.05;100.00;92224.13;2031981;28;20079;-85
2024/04/02 02:02:31;;;;;;;1.35;0.30;;;;;;;7.11;100.00;92230.44;2064111;28;20487;-82
2024/04/02 02:03:32;;;;;;;1.17;0.35;;;;;;;7.24;100.00;92222.53;2100129;27;20200;-85
2024/04/02 02:04:34;;;;;;;0.30;0.30;;;;;;;7.07;100.00;92224.47;2056231;28;21041;-81
2024/04/02 02:05:35;;;;;;;0.30;0.30;;;;;;;7.06;100.00;92223.69;2013683;28;21367;-82
2024/04/02 02:06:36;;;;;;;0.30;0.30;;;;;;;7.02;100.00;92231.03;2012132;28;20136;-81
2024/04/02 02:07:37;;;;;;;0.43;0.40;;;;;;;6.90;100.00;92225.63;2019305;28;20054;-82
2024/04/02 02:08:38;;;;;;;0.30;0.30;;;;;;;7.29;100.00;92224.72;2034931;27;23084;-84
2024/04/02 02:09:38;;;;;;;0.30;0.30;;;;;;;7.27;100.00;92229.69;2031671;28;20423;-81
2024/04/02 02:10:40;;;;;;;0.32;0.32;;;;;;;6.85;100.00;92247.34;2016596;28;20028;-83
2024/04/02 02:11:42;;;;;;;1.27;0.32;;;;;;;6.77;100.00;92228.91;2039169;28;20093;-84
2024/04/02 02:12:43;;;;;;;0.30;0.25;;;;;;;6.98;100.00;92222.41;2062300;28;20032;-82
2024/04/02 02:13:44;;;;;;;0.40;0.40;;;;;;;7.00;100.00;92233.34;2056995;28;20114;-81
2024/04/02 02:14:45;;;;;;;0.55;0.30;;;;;;;6.98;100.00;92225.06;2068405;28;20030;-84
2024/04/02 02:15:56;;;;;;;0.30;0.30;;;;;;;7.02;100.00;92232.91;2055512;28;21245;-84
2024/04/02 02:16:57;;;;;;;1.15;0.30;;;;;;;7.06;100.00;92223.69;2082367;28;20132;-85
2024/04/02 02:17:58;;;;;;;0.30;0.30;;;;;;;7.11;100.00;92225.13;2105260;28;20042;-82
2024/04/02 02:18:59;;;;;;;0.55;0.38;;;;;;;6.94;100.00;92228.94;2108739;28;20022;-83
2024/04/02 02:20:00;;;;;;;0.52;0.30;;;;;;;7.17;100.00;92217.41;2105004;28;20028;-84
2024/04/02 02:21:02;;;;;;;0.30;0.30;;;;;;;7.06;100.00;92229.03;2105155;28;20036;-83
2024/04/02 02:22:03;;;;;;;0.30;0.30;;;;;;;7.03;100.00;92229.88;2113452;28;20360;-83
2024/04/02 02:23:04;;;;;;;0.45;0.40;;;;;;;6.89;100.00;92224.88;2096925;28;20089;-83
2024/04/02 02:24:06;;;;;;;2.70;0.40;;;;;;;7.09;100.00;92224.78;2096986;28;20434;-84
2024/04/02 02:25:07;;;;;;;0.50;0.38;;;;;;;7.04;100.00;92218.06;2113798;28;20138;-81
2024/04/02 02:27:34;;;;;;;1.08;0.43;;;;;;;5.87;100.00;92231.09;2140872;27;20195;-79
2024/04/02 02:28:35;;;;;;;0.22;0.22;;;;;;;6.15;100.00;92233.25;2121419;28;20136;-80
2024/04/02 02:29:35;;;;;;;0.20;0.20;;;;;;;6.12;100.00;92234.03;2104567;28;20024;-81
2024/04/02 02:30:36;;;;;;;0.50;0.50;;;;;;;6.25;100.00;92236.84;2113074;28;20385;-81
2024/04/02 02:31:38;;;;;;;0.30;0.30;;;;;;;5.98;100.00;92227.09;2112818;28;20023;-81
2024/04/02 02:32:39;;;;;;;0.47;0.38;;;;;;;5.89;100.00;92220.81;2104520;28;20028;-83
2024/04/02 02:33:59;;;;;;;0.38;0.30;;;;;;;6.02;100.00;92230.44;2104594;28;20028;-83
2024/04/02 02:35:00;;;;;;;0.20;0.20;;;;;;;6.13;100.00;92237.44;2096359;28;20115;-82
2024/04/02 02:36:01;;;;;;;0.68;0.68;;;;;;;6.18;100.00;92239.63;2104571;28;20239;-84
2024/04/02 02:37:02;;;;;;;1.05;0.30;;;;;;;6.23;100.00;92237.25;2104718;28;20516;-84
2024/04/02 02:38:03;;;;;;;0.30;0.30;;;;;;;6.38;100.00;92240.38;2112891;28;20023;-82
2024/04/02 02:39:04;;;;;;;0.60;0.40;;;;;;;6.36;100.00;92241.91;2121183;28;20023;-81
2024/04/02 02:40:07;;;;;;;0.30;0.30;;;;;;;6.25;100.00;92236.84;2120523;28;20023;-79
2024/04/02 02:41:08;;;;;;;0.50;0.50;;;;;;;6.19;100.00;92246.41;2099980;28;20028;-82
2024/04/02 02:42:09;;;;;;;0.55;0.30;;;;;;;6.14;100.00;92246.91;2095732;28;20470;-80
2024/04/02 02:43:10;;;;;;;1.30;0.50;;;;;;;6.15;100.00;92248.41;2104483;28;20116;-82
2024/04/02 02:44:11;;;;;;;3.10;0.82;;;;;;;6.30;100.00;92254.94;2104472;28;20020;-84
2024/04/02 02:45:12;;;;;;;0.40;0.30;;;;;;;6.13;100.00;92248.06;2088068;28;20125;-84
2024/04/02 02:46:13;;;;;;;0.85;0.50;;;;;;;6.16;100.00;92249.91;2104262;28;20027;-84
2024/04/02 02:47:14;;;;;;;0.40;0.40;;;;;;;6.28;100.00;92252.69;2095742;28;20052;-85
2024/04/02 02:48:14;;;;;;;1.13;0.40;;;;;;;6.35;100.00;92262.41;2087709;28;20387;-81
2024/04/02 02:49:15;;;;;;;0.20;0.20;;;;;;;6.36;100.00;92247.22;2095822;28;20031;-80
2024/04/02 02:50:17;;;;;;;0.65;0.38;;;;;;;6.39;100.00;92273.69;2102581;28;20373;-81
2024/04/02 02:51:18;;;;;;;0.40;0.40;;;;;;;6.31;100.00;92253.75;2121200;28;20104;-82
2024/04/02 02:52:44;;;;;;;1.33;0.40;;;;;;;6.19;100.00;92259.69;2120932;28;20028;-82
2024/04/02 02:53:45;;;;;;;0.40;0.30;;;;;;;5.98;100.00;92256.28;2107880;28;20113;-83
2024/04/02 02:54:46;;;;;;;0.65;0.30;;;;;;;6.09;100.00;92256.06;2100231;28;20465;-84
2024/04/02 02:55:55;;;;;;;0.55;0.45;;;;;;;6.32;100.00;92268.53;2096001;28;20098;-82
2024/04/02 02:56:56;;;;;;;1.42;0.38;;;;;;;6.11;100.00;92259.09;2105384;28;20020;-83
2024/04/02 02:57:57;;;;;;;0.40;0.40;;;;;;;6.11;100.00;92259.09;2104236;28;20051;-83
2024/04/02 02:58:59;;;;;;;1.27;0.68;;;;;;;6.24;100.00;92267.19;2104416;28;20024;-83
2024/04/02 02:59:59;;;;;;;0.43;0.38;;;;;;;6.33;100.00;92261.34;2100315;28;20028;-84
2024/04/02 03:01:05;;;;;;;0.40;0.30;;;;;;;6.21;100.00;92260.03;2104339;28;20032;-84
2024/04/02 03:02:08;;;;;;;0.90;0.30;;;;;;;6.33;100.00;92264.00;2105359;28;20028;-83
2024/04/02 03:03:09;;;;;;;0.30;0.30;;;;;;;6.34;100.00;92262.81;2104324;28;20028;-84
2024/04/02 03:04:57;;;;;;;1.10;0.43;;;;;;;6.57;100.00;92262.72;2121135;28;20126;-81
2024/04/02 03:05:58;;;;;;;0.30;0.30;;;;;;;6.39;100.00;92265.00;2107050;28;20106;-84
2024/04/02 03:06:59;;;;;;;0.32;0.30;;;;;;;6.33;100.00;92264.72;2100147;28;20025;-83
2024/04/02 03:08:00;;;;;;;0.30;0.30;;;;;;;6.31;100.00;92264.38;2096084;28;20036;-84
2024/04/02 03:09:00;;;;;;;0.70;0.40;;;;;;;6.36;100.00;92269.19;2096012;28;20115;-81
2024/04/02 03:10:01;;;;;;;0.75;0.40;;;;;;;6.27;100.00;92264.44;2095898;28;20638;-80
2024/04/02 03:11:04;;;;;;;0.40;0.40;;;;;;;6.32;100.00;92271.19;2092167;28;20021;-83
2024/04/02 03:12:05;;;;;;;0.38;0.30;;;;;;;6.34;100.00;92268.88;2095990;28;20032;-83
2024/04/02 03:13:06;;;;;;;0.28;0.28;;;;;;;6.34;100.00;92270.78;2096796;28;20102;-82
2024/04/02 03:14:07;;;;;;;0.45;0.30;;;;;;;6.38;100.00;92280.16;2112323;28;20023;-83
2024/04/02 03:15:08;;;;;;;0.55;0.40;;;;;;;6.44;100.00;92277.78;2112486;28;20066;-82
2024/04/02 03:16:09;;;;;;;1.00;0.20;;;;;;;6.61;100.00;92276.69;2099129;28;20070;-82
2024/04/02 03:17:10;;;;;;;0.25;0.25;;;;;;;6.54;100.00;92268.84;2091254;28;20033;-83
2024/04/02 03:18:27;;;;;;;1.00;0.40;;;;;;;6.50;100.00;92278.81;2095873;28;20032;-82
2024/04/02 03:19:29;;;;;;;0.30;0.30;;;;;;;6.42;100.00;92278.19;2108873;28;20082;-82
2024/04/02 03:20:30;;;;;;;1.02;0.40;;;;;;;6.45;100.00;92276.63;2121069;27;20034;-83
2024/04/02 03:21:32;;;;;;;0.30;0.30;;;;;;;6.37;100.00;92273.38;2121089;28;20050;-83
2024/04/02 03:22:33;;;;;;;0.32;0.28;;;;;;;6.16;100.00;92281.75;2095960;28;20032;-82
2024/04/02 03:24:17;;;;;;;0.30;0.30;;;;;;;6.49;100.00;92277.28;2104138;28;20090;-83
2024/04/02 03:25:18;;;;;;;0.65;0.30;;;;;;;6.65;100.00;92285.31;2109899;28;20748;-84
2024/04/02 03:26:19;;;;;;;0.30;0.30;;;;;;;6.64;100.00;92280.44;2103903;28;20020;-83
2024/04/02 03:29:31;;;;;;;0.25;0.20;;;;;;;6.79;100.00;92292.25;2101989;28;20032;-82
2024/04/02 03:30:32;;;;;;;0.47;0.20;;;;;;;6.73;100.00;92286.69;2094877;28;20032;-82
2024/04/02 03:31:34;;;;;;;0.20;0.20;;;;;;;6.70;100.00;92287.50;2108760;28;20024;-82
2024/04/02 03:32:35;;;;;;;0.30;0.30;;;;;;;6.71;100.00;92291.63;2104144;27;20031;-82
2024/04/02 03:35:47;;;;;;;0.60;0.20;;;;;;;6.39;100.00;92292.28;2095162;28;20024;-83
2024/04/02 03:36:48;;;;;;;0.52;0.30;;;;;;;6.37;100.00;92291.22;2115410;28;20049;-83
2024/04/02 03:37:49;;;;;;;1.95;0.40;;;;;;;6.47;100.00;92285.69;2103876;28;20044;-83
2024/04/02 03:38:51;;;;;;;1.55;0.30;;;;;;;6.46;100.00;92283.44;2097727;28;20459;-83
2024/04/02 03:39:52;;;;;;;0.20;0.20;;;;;;;6.57;100.00;92294.59;2106817;28;20028;-83
2024/04/02 03:40:53;;;;;;;0.40;0.30;;;;;;;6.46;100.00;92296.72;2105837;28;20054;-83
2024/04/02 03:41:55;;;;;;;0.35;0.32;;;;;;;6.30;100.00;92297.38;2106731;28;20089;-82
2024/04/02 03:42:57;;;;;;;0.30;0.30;;;;;;;6.37;100.00;92302.56;2106569;28;20086;-84
2024/04/02 03:43:57;;;;;;;0.30;0.30;;;;;;;6.41;100.00;92297.94;2115311;28;20037;-83
2024/04/02 03:44:58;;;;;;;0.40;0.30;;;;;;;6.46;100.00;92294.81;2115284;28;20482;-83
2024/04/02 03:46:05;;;;;;;0.38;0.38;;;;;;;6.50;100.00;92308.75;2097327;28;20024;-83
2024/04/02 03:47:06;;;;;;;1.08;0.50;;;;;;;6.31;100.00;92298.88;2103417;28;20039;-84
2024/04/02 03:48:08;;;;;;;1.35;0.35;;;;;;;6.35;100.00;92299.56;2089936;28;20067;-83
2024/04/02 03:49:10;;;;;;;0.30;0.30;;;;;;;6.27;100.00;92296.28;2083680;28;20442;-80
2024/04/02 03:50:11;;;;;;;0.30;0.30;;;;;;;6.45;100.00;92306.59;2090116;28;20047;-82
2024/04/02 03:51:15;;;;;;;1.55;0.40;;;;;;;6.30;100.00;92298.13;2090039;28;20040;-82
2024/04/02 03:52:15;;;;;;;1.45;0.45;;;;;;;6.45;100.00;92314.56;2099033;28;20021;-83
2024/04/02 03:53:16;;;;;;;0.30;0.30;;;;;;;6.40;100.00;92309.69;2106610;28;20062;-83
2024/04/02 03:54:17;;;;;;;0.47;0.38;;;;;;;6.62;100.00;92306.63;2098308;28;20032;-84
2024/04/02 03:55:18;;;;;;;0.63;0.20;;;;;;;6.59;100.00;92308.22;2098468;28;20020;-84
2024/04/02 03:56:19;;;;;;;1.42;0.47;;;;;;;6.64;100.00;92305.06;2106684;28;20036;-82
2024/04/02 03:57:20;;;;;;;0.30;0.30;;;;;;;6.43;100.00;92313.44;2102594;28;20055;-84
2024/04/02 03:58:21;;;;;;;0.40;0.40;;;;;;;6.38;100.00;92311.28;2094048;28;20289;-82
2024/04/02 03:59:23;;;;;;;0.65;0.30;;;;;;;6.59;100.00;92315.44;2106665;28;20088;-83
2024/04/02 04:00:24;;;;;;;1.25;0.40;;;;;;;6.66;100.00;92313.38;2098405;28;20094;-84
2024/04/02 04:01:25;;;;;;;0.80;0.40;;;;;;;6.68;100.00;92323.59;2106639;28;20078;-82
2024/04/02 04:02:26;;;;;;;0.68;0.60;;;;;;;6.45;100.00;92314.56;2115125;28;20063;-83
2024/04/02 04:03:27;;;;;;;0.60;0.30;;;;;;;6.37;100.00;92318.50;2097442;28;20032;-81
2024/04/02 04:04:28;;;;;;;0.90;0.45;;;;;;;6.37;100.00;92315.84;2099656;28;20373;-83
2024/04/02 04:05:29;;;;;;;0.47;0.40;;;;;;;6.55;100.00;92318.16;2097440;28;20041;-82
2024/04/02 04:06:30;;;;;;;0.55;0.30;;;;;;;6.50;100.00;92324.69;2099055;28;20052;-82
2024/04/02 04:07:31;;;;;;;0.30;0.30;;;;;;;6.40;100.00;92319.56;2082843;28;20437;-83
2024/04/02 04:08:34;;;;;;;0.52;0.50;;;;;;;6.46;100.00;92331.22;2096831;28;20032;-83
2024/04/02 04:09:35;;;;;;;1.55;0.60;;;;;;;6.47;100.00;92320.19;2090343;28;20096;-83
2024/04/02 04:10:37;;;;;;;0.85;0.47;;;;;;;6.36;100.00;92314.31;2098193;28;20325;-82
2024/04/02 04:11:37;;;;;;;0.60;0.40;;;;;;;6.42;100.00;92328.63;2086524;28;20039;-83
2024/04/02 04:12:39;;;;;;;0.52;0.52;;;;;;;6.42;100.00;92325.97;2089487;28;20040;-83
2024/04/02 04:13:40;;;;;;;0.65;0.40;;;;;;;6.36;100.00;92332.91;2087249;28;20029;-84
2024/04/02 04:14:41;;;;;;;0.55;0.28;;;;;;;6.04;100.00;92334.22;2098247;28;20024;-81
2024/04/02 04:15:42;;;;;;;0.55;0.50;;;;;;;6.21;100.00;92323.72;2098199;28;20031;-81
2024/04/02 04:16:43;;;;;;;2.33;0.40;;;;;;;6.29;100.00;92341.75;2098255;28;20020;-83
2024/04/02 04:18:21;;;;;;;1.67;0.70;;;;;;;6.23;100.00;92339.97;2098885;28;20423;-84
2024/04/02 04:19:25;;;;;;;1.52;0.43;;;;;;;6.11;100.00;92333.38;2103261;28;20029;-83
2024/04/02 04:21:09;;;;;;;0.32;0.22;;;;;;;6.01;100.00;92340.38;2114047;28;20086;-83
2024/04/02 04:22:10;;;;;;;1.10;0.38;;;;;;;6.08;100.00;92338.72;2108040;28;20076;-82
2024/04/02 04:23:11;;;;;;;0.63;0.40;;;;;;;6.00;100.00;92341.50;2105927;28;20042;-84
2024/04/02 04:24:12;;;;;;;2.53;0.68;;;;;;;5.95;100.00;92328.72;2104396;28;20028;-83
2024/04/02 04:25:14;;;;;;;0.80;0.80;;;;;;;5.93;100.00;92335.59;2106300;28;20490;-82
2024/04/02 04:26:15;;;;;;;0.65;0.40;;;;;;;5.88;100.00;92333.34;2098251;28;20372;-82
2024/04/02 04:27:16;;;;;;;1.13;0.32;;;;;;;5.92;100.00;92331.41;2089814;28;20120;-83
2024/04/02 04:28:16;;;;;;;1.50;0.52;;;;;;;5.97;100.00;92333.59;2098233;28;20526;-82
2024/04/02 04:29:18;;;;;;;0.77;0.50;;;;;;;5.91;100.00;92328.00;2106346;28;20024;-83
2024/04/02 04:30:19;;;;;;;0.40;0.40;;;;;;;5.86;100.00;92333.00;2097652;28;20028;-83
2024/04/02 04:31:23;;;;;;;1.08;0.75;;;;;;;6.13;100.00;92328.41;2089608;28;20082;-83
2024/04/02 04:32:24;;;;;;;0.93;0.32;;;;;;;6.04;100.00;92328.94;2086511;28;20029;-82
2024/04/02 04:33:26;;;;;;;0.93;0.43;;;;;;;5.94;100.00;92334.44;2095622;28;20571;-83
2024/04/02 04:34:27;;;;;;;2.80;2.60;;;;;;;6.33;100.00;92328.44;2097353;28;20118;-82
2024/04/02 04:35:32;;;;;;;0.98;0.88;;;;;;;6.16;100.00;92326.84;2098048;28;20029;-82
2024/04/02 04:36:33;;;;;;;0.80;0.70;;;;;;;6.08;100.00;92330.78;2106722;28;20030;-83
2024/04/02 04:37:34;;;;;;;1.67;0.50;;;;;;;5.97;100.00;92336.25;2106214;28;20039;-83
2024/04/02 04:38:35;;;;;;;0.52;0.52;;;;;;;5.81;100.00;92339.53;2114563;28;20034;-83
2024/04/02 04:39:36;;;;;;;1.85;1.52;;;;;;;5.80;100.00;92336.13;2119841;27;20019;-80
2024/04/02 04:40:37;;;;;;;3.25;2.15;;;;;;;5.91;100.00;92337.84;2114554;28;20051;-80
2024/04/02 04:41:38;;;;;;;1.88;1.00;;;;;;;5.88;100.00;92336.75;2105985;28;20457;-80
2024/04/02 04:42:39;;;;;;;1.40;1.30;;;;;;;5.91;100.00;92338.59;2090701;28;20786;-82
2024/04/02 04:43:41;;;;;;;0.50;0.45;;;;;;;5.82;100.00;92346.31;2084647;28;20075;-83
2024/04/02 04:44:45;;;;;;;1.23;0.60;;;;;;;5.82;100.00;92341.78;2085128;28;20089;-84
2024/04/02 04:45:51;;;;;;;1.15;0.40;;;;;;;5.85;100.00;92342.88;2093787;28;20116;-82
2024/04/02 04:46:52;;;;;;;0.47;0.47;;;;;;;5.98;100.00;92346.47;2086958;28;20485;-83
2024/04/02 04:47:59;;;;;;;1.73;0.88;;;;;;;5.95;100.00;92359.78;2097678;28;20048;-81
2024/04/02 04:49:00;;;;;;;0.65;0.65;;;;;;;5.90;100.00;92363.63;2102015;28;20035;-82
2024/04/02 04:50:02;;;;;;;0.50;0.50;;;;;;;5.90;100.00;92362.88;2088749;28;20025;-80
2024/04/02 04:51:04;;;;;;;1.52;1.15;;;;;;;5.63;100.00;92360.28;2092504;28;20390;-81
2024/04/02 04:54:45;;;;;;;0.98;0.40;;;;;;;5.68;100.00;92355.25;2088763;28;20116;-80
2024/04/02 04:57:31;;;;;;;1.00;0.60;;;;;;;5.71;100.00;92362.41;2073892;28;20462;-81
2024/04/02 04:58:34;;;;;;;0.65;0.60;;;;;;;5.95;100.00;92365.09;2062885;28;20042;-81
2024/04/02 05:00:04;;;;;;;0.98;0.93;;;;;;;5.94;100.00;92367.00;2077718;28;20037;-84
2024/04/02 05:03:05;;;;;;;2.22;0.82;;;;;;;5.73;100.00;92367.31;2112521;27;20114;-80
2024/04/02 05:04:06;;;;;;;0.43;0.40;;;;;;;5.65;100.00;92374.63;2104316;28;20023;-80
2024/04/02 05:05:07;;;;;;;0.50;0.50;;;;;;;5.67;100.00;92376.88;2104554;28;20024;-80
2024/04/02 05:06:09;;;;;;;1.23;0.38;;;;;;;5.60;100.00;92380.38;2095799;28;20028;-80
2024/04/02 05:07:23;;;;;;;0.57;0.57;;;;;;;5.46;100.00;92376.03;2083133;28;20022;-80
2024/04/02 05:08:25;;;;;;;0.30;0.30;;;;;;;5.41;100.00;92370.44;2089590;28;20107;-81
2024/04/02 05:13:21;;;;;;;0.30;0.30;;;;;;;5.44;100.00;92385.53;2104907;28;20035;-80
2024/04/02 05:14:22;;;;;;;0.30;0.30;;;;;;;5.55;100.00;92386.13;2103609;28;20074;-81
2024/04/02 05:15:26;;;;;;;0.47;0.20;;;;;;;5.54;100.00;92388.03;2094119;28;20024;-80
2024/04/02 05:16:27;;;;;;;0.57;0.20;;;;;;;5.70;100.00;92398.03;2092519;28;20039;-80
2024/04/02 05:17:31;;;;;;;0.22;0.22;;;;;;;5.73;100.00;92405.19;2087131;28;20520;-80
2024/04/02 05:18:35;;;;;;;0.20;0.20;;;;;;;5.89;100.00;92393.22;2085535;28;20032;-80